sensor_id;sensor_type;location;lat;lon;timestamp;P1;durP1;ratioP1;P2;durP2;ratioP2
19946;SDS011;10135;50.702;7.276;2024-03-08T06:02:07;25.10;;;12.13;;
19946;SDS011;10135;50.702;7.276;2024-03-08T06:04:08;26.27;;;12.93;;
19946;SDS011;10135;50.702;7.276;2024-03-08T06:06:09;28.93;;;13.60;;
19946;SDS011;10135;50.702;7.276;2024-03-08T06:08:10;24.43;;;12.80;;
19946;SDS011;10135;50.702;7.276;2024-03-08T06:10:11;25.20;;;13.07;;
19946;SDS011;10135;50.702;7.276;2024-03-08T06:12:13;26.83;;;13.80;;
19946;SDS011;10135;50.702;7.276;2024-03-08T06:16:20;26.63;;;13.23;;
19946;SDS011;10135;50.702;7.276;2024-03-08T06:18:21;27.43;;;14.07;;
19946;SDS011;10135;50.702;7.276;2024-03-08T06:20:21;23.50;;;13.53;;
19946;SDS011;10135;50.702;7.276;2024-03-08T06:22:26;25.47;;;13.77;;
19946;SDS011;10135;50.702;7.276;2024-03-08T06:24:26;26.07;;;14.00;;
19946;SDS011;10135;50.702;7.276;2024-03-08T06:26:27;25.90;;;14.00;;
19946;SDS011;10135;50.702;7.276;2024-03-08T06:28:28;27.57;;;13.63;;
19946;SDS011;10135;50.702;7.276;2024-03-08T06:30:29;23.17;;;12.87;;
19946;SDS011;10135;50.702;7.276;2024-03-08T06:32:31;31.23;;;13.50;;
19946;SDS011;10135;50.702;7.276;2024-03-08T06:34:35;28.07;;;13.20;;
19946;SDS011;10135;50.702;7.276;2024-03-08T06:36:36;28.23;;;13.57;;
19946;SDS011;10135;50.702;7.276;2024-03-08T06:38:38;24.70;;;13.83;;
19946;SDS011;10135;50.702;7.276;2024-03-08T06:40:42;24.43;;;13.43;;
19946;SDS011;10135;50.702;7.276;2024-03-08T06:42:43;27.17;;;14.13;;
19946;SDS011;10135;50.702;7.276;2024-03-08T06:44:44;25.57;;;13.37;;
19946;SDS011;10135;50.702;7.276;2024-03-08T06:46:49;24.03;;;13.40;;
19946;SDS011;10135;50.702;7.276;2024-03-08T06:48:50;22.90;;;12.63;;
19946;SDS011;10135;50.702;7.276;2024-03-08T06:50:50;22.37;;;12.60;;
19946;SDS011;10135;50.702;7.276;2024-03-08T06:52:51;23.70;;;12.77;;
19946;SDS011;10135;50.702;7.276;2024-03-08T06:54:53;25.47;;;13.80;;
19946;SDS011;10135;50.702;7.276;2024-03-08T06:56:54;22.47;;;12.50;;
19946;SDS011;10135;50.702;7.276;2024-03-08T06:58:54;20.07;;;12.60;;
19946;SDS011;10135;50.702;7.276;2024-03-08T07:00:55;18.37;;;11.70;;
19946;SDS011;10135;50.702;7.276;2024-03-08T07:03:00;20.13;;;11.57;;
19946;SDS011;10135;50.702;7.276;2024-03-08T07:05:01;24.17;;;13.27;;
19946;SDS011;10135;50.702;7.276;2024-03-08T07:07:04;19.77;;;11.43;;
19946;SDS011;10135;50.702;7.276;2024-03-08T07:09:05;20.83;;;12.00;;
19946;SDS011;10135;50.702;7.276;2024-03-08T07:11:06;22.27;;;12.57;;
19946;SDS011;10135;50.702;7.276;2024-03-08T07:13:07;20.47;;;12.37;;
19946;SDS011;10135;50.702;7.276;2024-03-08T07:15:08;19.53;;;12.00;;
19946;SDS011;10135;50.702;7.276;2024-03-08T07:17:13;21.23;;;12.57;;
19946;SDS011;10135;50.702;7.276;2024-03-08T07:19:14;20.70;;;12.37;;
19946;SDS011;10135;50.702;7.276;2024-03-08T07:21:15;18.10;;;12.10;;
19946;SDS011;10135;50.702;7.276;2024-03-08T07:23:16;19.20;;;12.30;;
19946;SDS011;10135;50.702;7.276;2024-03-08T07:25:37;20.17;;;11.70;;
19946;SDS011;10135;50.702;7.276;2024-03-08T07:27:39;16.97;;;11.93;;
19946;SDS011;10135;50.702;7.276;2024-03-08T07:29:40;20.43;;;11.20;;
19946;SDS011;10135;50.702;7.276;2024-03-08T07:31:41;16.83;;;11.30;;
19946;SDS011;10135;50.702;7.276;2024-03-08T07:33:42;19.47;;;10.90;;
19946;SDS011;10135;50.702;7.276;2024-03-08T07:35:43;18.13;;;11.60;;
19946;SDS011;10135;50.702;7.276;2024-03-08T07:37:44;17.47;;;11.70;;
19946;SDS011;10135;50.702;7.276;2024-03-08T07:39:45;17.10;;;11.77;;
19946;SDS011;10135;50.702;7.276;2024-03-08T07:41:46;19.77;;;12.10;;
19946;SDS011;10135;50.702;7.276;2024-03-08T07:43:48;19.97;;;12.27;;
19946;SDS011;10135;50.702;7.276;2024-03-08T07:45:48;20.97;;;11.27;;
19946;SDS011;10135;50.702;7.276;2024-03-08T07:47:49;16.90;;;11.27;;
19946;SDS011;10135;50.702;7.276;2024-03-08T07:49:50;20.20;;;11.90;;
19946;SDS011;10135;50.702;7.276;2024-03-08T07:51:51;20.20;;;11.90;;
19946;SDS011;10135;50.702;7.276;2024-03-08T07:53:52;16.87;;;11.17;;
19946;SDS011;10135;50.702;7.276;2024-03-08T07:55:52;19.23;;;11.30;;
19946;SDS011;10135;50.702;7.276;2024-03-08T07:57:53;17.70;;;11.07;;
19946;SDS011;10135;50.702;7.276;2024-03-08T07:59:53;18.53;;;11.80;;
19946;SDS011;10135;50.702;7.276;2024-03-08T08:01:54;20.33;;;11.77;;
19946;SDS011;10135;50.702;7.276;2024-03-08T08:03:55;19.13;;;12.13;;
19946;SDS011;10135;50.702;7.276;2024-03-08T08:05:56;20.10;;;12.07;;
19946;SDS011;10135;50.702;7.276;2024-03-08T08:07:57;21.53;;;11.73;;
19946;SDS011;10135;50.702;7.276;2024-03-08T08:09:57;17.80;;;11.80;;
19946;SDS011;10135;50.702;7.276;2024-03-08T08:11:59;20.17;;;11.83;;
19946;SDS011;10135;50.702;7.276;2024-03-08T08:14:01;23.37;;;11.70;;
19946;SDS011;10135;50.702;7.276;2024-03-08T08:16:02;17.63;;;12.03;;
19946;SDS011;10135;50.702;7.276;2024-03-08T08:18:05;18.53;;;11.47;;
19946;SDS011;10135;50.702;7.276;2024-03-08T08:20:06;19.80;;;11.57;;
19946;SDS011;10135;50.702;7.276;2024-03-08T08:22:08;18.80;;;11.60;;
19946;SDS011;10135;50.702;7.276;2024-03-08T08:24:09;21.00;;;11.27;;
19946;SDS011;10135;50.702;7.276;2024-03-08T08:26:10;17.73;;;11.53;;
19946;SDS011;10135;50.702;7.276;2024-03-08T08:28:11;20.90;;;11.43;;
19946;SDS011;10135;50.702;7.276;2024-03-08T08:30:12;18.67;;;11.83;;
19946;SDS011;10135;50.702;7.276;2024-03-08T08:32:13;20.00;;;11.47;;
19946;SDS011;10135;50.702;7.276;2024-03-08T08:34:14;18.77;;;11.97;;
19946;SDS011;10135;50.702;7.276;2024-03-08T08:36:15;19.63;;;11.50;;
19946;SDS011;10135;50.702;7.276;2024-03-08T08:38:15;18.97;;;11.23;;
19946;SDS011;10135;50.702;7.276;2024-03-08T08:40:16;18.07;;;11.23;;
19946;SDS011;10135;50.702;7.276;2024-03-08T08:42:17;18.37;;;11.37;;
19946;SDS011;10135;50.702;7.276;2024-03-08T08:44:18;18.33;;;11.20;;
19946;SDS011;10135;50.702;7.276;2024-03-08T08:46:18;19.43;;;10.90;;
19946;SDS011;10135;50.702;7.276;2024-03-08T08:48:21;16.43;;;10.30;;
19946;SDS011;10135;50.702;7.276;2024-03-08T08:50:22;15.10;;;10.40;;
19946;SDS011;10135;50.702;7.276;2024-03-08T08:52:23;18.13;;;10.60;;
19946;SDS011;10135;50.702;7.276;2024-03-08T08:54:24;14.83;;;10.10;;
19946;SDS011;10135;50.702;7.276;2024-03-08T08:56:25;16.07;;;10.70;;
19946;SDS011;10135;50.702;7.276;2024-03-08T08:58:26;15.10;;;9.97;;
19946;SDS011;10135;50.702;7.276;2024-03-08T09:00:27;19.07;;;10.67;;
19946;SDS011;10135;50.702;7.276;2024-03-08T09:02:35;14.50;;;9.60;;
19946;SDS011;10135;50.702;7.276;2024-03-08T09:04:37;15.17;;;9.80;;
19946;SDS011;10135;50.702;7.276;2024-03-08T09:06:38;15.27;;;9.60;;
19946;SDS011;10135;50.702;7.276;2024-03-08T09:08:41;16.33;;;10.30;;
19946;SDS011;10135;50.702;7.276;2024-03-08T09:10:44;13.03;;;9.03;;
19946;SDS011;10135;50.702;7.276;2024-03-08T09:12:44;14.90;;;9.77;;
19946;SDS011;10135;50.702;7.276;2024-03-08T09:14:45;16.43;;;9.57;;
19946;SDS011;10135;50.702;7.276;2024-03-08T09:16:46;12.07;;;8.80;;
19946;SDS011;10135;50.702;7.276;2024-03-08T09:18:47;11.67;;;8.13;;
19946;SDS011;10135;50.702;7.276;2024-03-08T09:20:48;14.53;;;9.03;;
19946;SDS011;10135;50.702;7.276;2024-03-08T09:22:48;13.47;;;8.97;;
19946;SDS011;10135;50.702;7.276;2024-03-08T09:24:49;14.30;;;8.90;;
19946;SDS011;10135;50.702;7.276;2024-03-08T09:26:50;12.60;;;8.60;;
19946;SDS011;10135;50.702;7.276;2024-03-08T09:28:52;15.63;;;9.23;;
19946;SDS011;10135;50.702;7.276;2024-03-08T09:30:54;18.73;;;9.30;;
19946;SDS011;10135;50.702;7.276;2024-03-08T09:32:55;12.83;;;8.77;;
19946;SDS011;10135;50.702;7.276;2024-03-08T09:34:56;10.90;;;8.37;;
19946;SDS011;10135;50.702;7.276;2024-03-08T09:36:56;11.43;;;8.23;;
19946;SDS011;10135;50.702;7.276;2024-03-08T09:38:57;12.57;;;9.03;;
19946;SDS011;10135;50.702;7.276;2024-03-08T09:40:58;11.73;;;8.87;;
19946;SDS011;10135;50.702;7.276;2024-03-08T09:42:59;13.93;;;9.30;;
19946;SDS011;10135;50.702;7.276;2024-03-08T09:44:59;11.00;;;8.17;;
19946;SDS011;10135;50.702;7.276;2024-03-08T09:47:00;14.50;;;8.57;;
19946;SDS011;10135;50.702;7.276;2024-03-08T09:49:04;13.93;;;9.10;;
19946;SDS011;10135;50.702;7.276;2024-03-08T09:51:05;12.03;;;8.90;;
19946;SDS011;10135;50.702;7.276;2024-03-08T09:53:07;13.73;;;8.93;;
19946;SDS011;10135;50.702;7.276;2024-03-08T09:55:09;12.93;;;8.63;;
19946;SDS011;10135;50.702;7.276;2024-03-08T09:57:11;12.03;;;9.17;;
19946;SDS011;10135;50.702;7.276;2024-03-08T09:59:12;13.73;;;9.30;;
19946;SDS011;10135;50.702;7.276;2024-03-08T10:01:32;13.03;;;8.90;;
19946;SDS011;10135;50.702;7.276;2024-03-08T10:03:33;13.53;;;9.10;;
19946;SDS011;10135;50.702;7.276;2024-03-08T10:05:35;13.77;;;8.30;;
19946;SDS011;10135;50.702;7.276;2024-03-08T10:07:35;13.40;;;9.43;;
19946;SDS011;10135;50.702;7.276;2024-03-08T10:09:36;16.07;;;8.87;;
19946;SDS011;10135;50.702;7.276;2024-03-08T10:11:37;12.73;;;9.00;;
19946;SDS011;10135;50.702;7.276;2024-03-08T10:13:38;13.17;;;8.63;;
19946;SDS011;10135;50.702;7.276;2024-03-08T10:15:40;14.27;;;9.17;;
19946;SDS011;10135;50.702;7.276;2024-03-08T10:17:41;13.37;;;9.37;;
19946;SDS011;10135;50.702;7.276;2024-03-08T10:19:49;13.50;;;9.23;;
19946;SDS011;10135;50.702;7.276;2024-03-08T10:21:52;17.13;;;9.70;;
19946;SDS011;10135;50.702;7.276;2024-03-08T10:23:58;12.17;;;9.03;;
19946;SDS011;10135;50.702;7.276;2024-03-08T10:26:12;12.33;;;8.90;;
19946;SDS011;10135;50.702;7.276;2024-03-08T10:28:14;14.17;;;9.10;;
19946;SDS011;10135;50.702;7.276;2024-03-08T10:30:15;15.17;;;9.10;;
19946;SDS011;10135;50.702;7.276;2024-03-08T10:32:20;13.30;;;9.20;;
19946;SDS011;10135;50.702;7.276;2024-03-08T10:34:21;13.93;;;8.47;;
19946;SDS011;10135;50.702;7.276;2024-03-08T10:36:23;15.33;;;9.77;;
19946;SDS011;10135;50.702;7.276;2024-03-08T10:38:24;13.67;;;9.07;;
19946;SDS011;10135;50.702;7.276;2024-03-08T10:40:32;13.57;;;9.10;;
19946;SDS011;10135;50.702;7.276;2024-03-08T10:42:33;12.10;;;8.30;;
19946;SDS011;10135;50.702;7.276;2024-03-08T10:44:40;15.17;;;8.90;;
19946;SDS011;10135;50.702;7.276;2024-03-08T10:47:13;14.27;;;8.70;;
19946;SDS011;10135;50.702;7.276;2024-03-08T10:49:31;12.83;;;8.30;;
19946;SDS011;10135;50.702;7.276;2024-03-08T10:51:39;14.87;;;9.33;;
19946;SDS011;10135;50.702;7.276;2024-03-08T10:53:42;15.60;;;9.50;;
19946;SDS011;10135;50.702;7.276;2024-03-08T10:55:44;12.63;;;9.00;;
19946;SDS011;10135;50.702;7.276;2024-03-08T10:57:47;14.13;;;9.10;;
19946;SDS011;10135;50.702;7.276;2024-03-08T10:59:48;14.90;;;8.93;;
19946;SDS011;10135;50.702;7.276;2024-03-08T11:01:49;14.43;;;9.17;;
19946;SDS011;10135;50.702;7.276;2024-03-08T11:03:51;12.77;;;8.90;;
19946;SDS011;10135;50.702;7.276;2024-03-08T11:05:53;12.70;;;8.60;;
19946;SDS011;10135;50.702;7.276;2024-03-08T11:07:53;14.43;;;9.43;;
19946;SDS011;10135;50.702;7.276;2024-03-08T11:09:54;14.73;;;9.63;;
19946;SDS011;10135;50.702;7.276;2024-03-08T11:14:45;16.33;;;9.20;;
19946;SDS011;10135;50.702;7.276;2024-03-08T11:16:49;15.90;;;9.23;;
19946;SDS011;10135;50.702;7.276;2024-03-08T11:18:53;13.03;;;8.93;;
19946;SDS011;10135;50.702;7.276;2024-03-08T11:21:04;12.97;;;8.47;;
19946;SDS011;10135;50.702;7.276;2024-03-08T11:23:12;14.67;;;9.60;;
19946;SDS011;10135;50.702;7.276;2024-03-08T11:25:30;14.37;;;8.87;;
19946;SDS011;10135;50.702;7.276;2024-03-08T11:27:52;14.50;;;8.90;;
19946;SDS011;10135;50.702;7.276;2024-03-08T11:30:07;14.23;;;9.00;;
19946;SDS011;10135;50.702;7.276;2024-03-08T11:32:12;12.77;;;8.67;;
19946;SDS011;10135;50.702;7.276;2024-03-08T11:34:16;18.00;;;9.63;;
19946;SDS011;10135;50.702;7.276;2024-03-08T11:36:24;12.43;;;8.37;;
19946;SDS011;10135;50.702;7.276;2024-03-08T11:38:25;12.00;;;8.20;;
19946;SDS011;10135;50.702;7.276;2024-03-08T11:40:26;13.50;;;8.43;;
19946;SDS011;10135;50.702;7.276;2024-03-08T11:42:27;12.40;;;8.73;;
19946;SDS011;10135;50.702;7.276;2024-03-08T11:44:27;11.97;;;8.03;;
19946;SDS011;10135;50.702;7.276;2024-03-08T11:46:28;10.30;;;7.63;;
19946;SDS011;10135;50.702;7.276;2024-03-08T11:48:28;11.80;;;7.73;;
19946;SDS011;10135;50.702;7.276;2024-03-08T11:50:29;11.60;;;8.00;;
19946;SDS011;10135;50.702;7.276;2024-03-08T11:52:30;12.43;;;8.00;;
19946;SDS011;10135;50.702;7.276;2024-03-08T11:54:31;12.10;;;8.10;;
19946;SDS011;10135;50.702;7.276;2024-03-08T11:56:32;11.63;;;7.73;;
19946;SDS011;10135;50.702;7.276;2024-03-08T11:58:34;10.30;;;7.47;;
19946;SDS011;10135;50.702;7.276;2024-03-08T12:00:36;10.73;;;6.93;;
19946;SDS011;10135;50.702;7.276;2024-03-08T12:02:38;11.33;;;7.47;;
19946;SDS011;10135;50.702;7.276;2024-03-08T12:04:41;12.30;;;6.97;;
19946;SDS011;10135;50.702;7.276;2024-03-08T12:06:41;10.83;;;7.73;;
19946;SDS011;10135;50.702;7.276;2024-03-08T12:08:42;12.23;;;7.37;;
19946;SDS011;10135;50.702;7.276;2024-03-08T12:10:43;12.00;;;7.67;;
19946;SDS011;10135;50.702;7.276;2024-03-08T12:12:44;9.53;;;7.10;;
19946;SDS011;10135;50.702;7.276;2024-03-08T12:16:58;9.93;;;7.30;;
19946;SDS011;10135;50.702;7.276;2024-03-08T12:19:00;9.13;;;6.97;;
19946;SDS011;10135;50.702;7.276;2024-03-08T12:21:07;9.37;;;6.80;;
19946;SDS011;10135;50.702;7.276;2024-03-08T12:23:13;11.17;;;7.50;;
19946;SDS011;10135;50.702;7.276;2024-03-08T12:25:15;10.30;;;6.90;;
19946;SDS011;10135;50.702;7.276;2024-03-08T12:27:19;10.03;;;7.03;;
19946;SDS011;10135;50.702;7.276;2024-03-08T12:31:24;12.43;;;7.10;;
19946;SDS011;10135;50.702;7.276;2024-03-08T12:33:25;10.37;;;7.20;;
19946;SDS011;10135;50.702;7.276;2024-03-08T12:35:28;10.17;;;6.97;;
19946;SDS011;10135;50.702;7.276;2024-03-08T12:37:31;12.90;;;7.00;;
19946;SDS011;10135;50.702;7.276;2024-03-08T12:39:32;10.37;;;6.97;;
19946;SDS011;10135;50.702;7.276;2024-03-08T12:41:38;11.33;;;7.43;;
19946;SDS011;10135;50.702;7.276;2024-03-08T12:43:41;10.30;;;7.50;;
19946;SDS011;10135;50.702;7.276;2024-03-08T12:45:41;11.30;;;7.23;;
19946;SDS011;10135;50.702;7.276;2024-03-08T12:47:42;10.90;;;7.07;;
19946;SDS011;10135;50.702;7.276;2024-03-08T12:49:43;10.83;;;7.37;;
19946;SDS011;10135;50.702;7.276;2024-03-08T12:51:45;10.97;;;7.13;;
19946;SDS011;10135;50.702;7.276;2024-03-08T12:53:46;10.40;;;7.43;;
19946;SDS011;10135;50.702;7.276;2024-03-08T12:55:47;9.90;;;7.13;;
19946;SDS011;10135;50.702;7.276;2024-03-08T12:57:47;8.57;;;6.47;;
19946;SDS011;10135;50.702;7.276;2024-03-08T12:59:48;9.37;;;6.57;;
19946;SDS011;10135;50.702;7.276;2024-03-08T13:01:50;11.70;;;7.10;;
19946;SDS011;10135;50.702;7.276;2024-03-08T13:03:53;8.17;;;6.30;;
19946;SDS011;10135;50.702;7.276;2024-03-08T13:05:55;12.60;;;6.87;;
19946;SDS011;10135;50.702;7.276;2024-03-08T13:07:57;10.03;;;7.27;;
19946;SDS011;10135;50.702;7.276;2024-03-08T13:09:57;10.73;;;7.20;;
19946;SDS011;10135;50.702;7.276;2024-03-08T13:11:59;10.00;;;6.50;;
19946;SDS011;10135;50.702;7.276;2024-03-08T13:14:00;9.73;;;6.50;;
19946;SDS011;10135;50.702;7.276;2024-03-08T13:16:03;8.93;;;6.67;;
19946;SDS011;10135;50.702;7.276;2024-03-08T13:18:08;11.07;;;7.27;;
19946;SDS011;10135;50.702;7.276;2024-03-08T13:20:09;9.13;;;6.60;;
19946;SDS011;10135;50.702;7.276;2024-03-08T13:22:16;9.00;;;6.70;;
19946;SDS011;10135;50.702;7.276;2024-03-08T13:24:17;9.20;;;6.93;;
19946;SDS011;10135;50.702;7.276;2024-03-08T13:26:19;8.37;;;6.40;;
19946;SDS011;10135;50.702;7.276;2024-03-08T13:28:19;9.50;;;6.90;;
19946;SDS011;10135;50.702;7.276;2024-03-08T13:30:23;9.30;;;6.80;;
19946;SDS011;10135;50.702;7.276;2024-03-08T13:32:26;9.57;;;6.93;;
19946;SDS011;10135;50.702;7.276;2024-03-08T13:34:27;8.80;;;6.67;;
19946;SDS011;10135;50.702;7.276;2024-03-08T13:36:29;10.23;;;7.30;;
19946;SDS011;10135;50.702;7.276;2024-03-08T13:38:39;12.03;;;6.60;;
19946;SDS011;10135;50.702;7.276;2024-03-08T13:40:42;10.17;;;7.40;;
19946;SDS011;10135;50.702;7.276;2024-03-08T13:42:43;8.83;;;6.80;;
19946;SDS011;10135;50.702;7.276;2024-03-08T13:44:47;10.83;;;7.13;;
19946;SDS011;10135;50.702;7.276;2024-03-08T13:46:48;11.93;;;7.00;;
19946;SDS011;10135;50.702;7.276;2024-03-08T13:48:51;8.67;;;6.47;;
19946;SDS011;10135;50.702;7.276;2024-03-08T13:50:54;9.97;;;6.77;;
19946;SDS011;10135;50.702;7.276;2024-03-08T13:52:57;9.40;;;6.20;;
19946;SDS011;10135;50.702;7.276;2024-03-08T13:54:58;9.40;;;6.87;;
19946;SDS011;10135;50.702;7.276;2024-03-08T13:56:59;7.20;;;6.07;;
19946;SDS011;10135;50.702;7.276;2024-03-08T13:59:00;10.87;;;7.13;;
19946;SDS011;10135;50.702;7.276;2024-03-08T14:01:02;9.03;;;6.73;;
19946;SDS011;10135;50.702;7.276;2024-03-08T14:03:05;9.67;;;6.63;;
19946;SDS011;10135;50.702;7.276;2024-03-08T14:05:07;11.83;;;7.00;;
19946;SDS011;10135;50.702;7.276;2024-03-08T14:07:09;10.53;;;7.07;;
19946;SDS011;10135;50.702;7.276;2024-03-08T14:09:12;11.10;;;6.50;;
19946;SDS011;10135;50.702;7.276;2024-03-08T14:11:19;11.30;;;6.73;;
19946;SDS011;10135;50.702;7.276;2024-03-08T14:13:20;8.73;;;6.47;;
19946;SDS011;10135;50.702;7.276;2024-03-08T14:15:21;7.70;;;6.13;;
19946;SDS011;10135;50.702;7.276;2024-03-08T14:17:22;12.83;;;6.97;;
19946;SDS011;10135;50.702;7.276;2024-03-08T14:19:23;10.67;;;6.80;;
19946;SDS011;10135;50.702;7.276;2024-03-08T14:21:24;11.07;;;6.70;;
19946;SDS011;10135;50.702;7.276;2024-03-08T14:23:25;8.70;;;6.57;;
19946;SDS011;10135;50.702;7.276;2024-03-08T14:25:27;9.37;;;6.53;;
19946;SDS011;10135;50.702;7.276;2024-03-08T14:27:29;11.47;;;7.30;;
19946;SDS011;10135;50.702;7.276;2024-03-08T14:29:30;9.10;;;6.63;;
19946;SDS011;10135;50.702;7.276;2024-03-08T14:31:32;9.70;;;6.90;;
19946;SDS011;10135;50.702;7.276;2024-03-08T14:33:33;10.60;;;6.60;;
19946;SDS011;10135;50.702;7.276;2024-03-08T14:35:34;9.60;;;6.87;;
19946;SDS011;10135;50.702;7.276;2024-03-08T14:37:36;11.30;;;6.83;;
19946;SDS011;10135;50.702;7.276;2024-03-08T14:39:37;10.40;;;7.07;;
19946;SDS011;10135;50.702;7.276;2024-03-08T14:41:38;9.13;;;6.57;;
19946;SDS011;10135;50.702;7.276;2024-03-08T14:43:38;8.83;;;6.97;;
19946;SDS011;10135;50.702;7.276;2024-03-08T14:45:39;9.63;;;6.17;;
19946;SDS011;10135;50.702;7.276;2024-03-08T14:47:41;9.27;;;6.97;;
19946;SDS011;10135;50.702;7.276;2024-03-08T14:49:42;8.87;;;6.70;;
19946;SDS011;10135;50.702;7.276;2024-03-08T14:51:42;12.43;;;7.17;;
19946;SDS011;10135;50.702;7.276;2024-03-08T14:53:44;9.77;;;7.00;;
19946;SDS011;10135;50.702;7.276;2024-03-08T14:55:45;9.67;;;6.93;;
19946;SDS011;10135;50.702;7.276;2024-03-08T14:57:51;9.67;;;6.60;;
19946;SDS011;10135;50.702;7.276;2024-03-08T14:59:52;10.43;;;6.80;;
19946;SDS011;10135;50.702;7.276;2024-03-08T15:01:52;10.07;;;7.03;;
19946;SDS011;10135;50.702;7.276;2024-03-08T15:03:53;10.70;;;6.60;;
19946;SDS011;10135;50.702;7.276;2024-03-08T15:05:54;10.00;;;6.80;;
19946;SDS011;10135;50.702;7.276;2024-03-08T15:07:55;12.23;;;6.90;;
19946;SDS011;10135;50.702;7.276;2024-03-08T15:09:56;10.20;;;7.07;;
19946;SDS011;10135;50.702;7.276;2024-03-08T15:11:57;13.53;;;7.20;;
19946;SDS011;10135;50.702;7.276;2024-03-08T15:13:57;9.67;;;6.93;;
19946;SDS011;10135;50.702;7.276;2024-03-08T15:15:58;11.37;;;7.10;;
19946;SDS011;10135;50.702;7.276;2024-03-08T15:17:59;10.77;;;7.43;;
19946;SDS011;10135;50.702;7.276;2024-03-08T15:20:03;11.30;;;7.27;;
19946;SDS011;10135;50.702;7.276;2024-03-08T15:22:04;9.70;;;7.10;;
19946;SDS011;10135;50.702;7.276;2024-03-08T15:24:05;10.90;;;7.33;;
19946;SDS011;10135;50.702;7.276;2024-03-08T15:26:10;10.00;;;6.70;;
19946;SDS011;10135;50.702;7.276;2024-03-08T15:28:10;11.53;;;7.30;;
19946;SDS011;10135;50.702;7.276;2024-03-08T15:30:15;11.27;;;6.87;;
19946;SDS011;10135;50.702;7.276;2024-03-08T15:32:18;13.33;;;7.40;;
19946;SDS011;10135;50.702;7.276;2024-03-08T15:34:20;10.73;;;7.27;;
19946;SDS011;10135;50.702;7.276;2024-03-08T15:36:23;10.40;;;6.80;;
19946;SDS011;10135;50.702;7.276;2024-03-08T15:38:28;10.37;;;7.10;;
19946;SDS011;10135;50.702;7.276;2024-03-08T15:40:29;11.37;;;6.80;;
19946;SDS011;10135;50.702;7.276;2024-03-08T15:42:30;10.83;;;7.20;;
19946;SDS011;10135;50.702;7.276;2024-03-08T15:44:31;9.33;;;6.87;;
19946;SDS011;10135;50.702;7.276;2024-03-08T15:46:32;10.53;;;7.00;;
19946;SDS011;10135;50.702;7.276;2024-03-08T15:48:33;11.33;;;7.13;;
19946;SDS011;10135;50.702;7.276;2024-03-08T15:50:35;9.13;;;6.70;;
19946;SDS011;10135;50.702;7.276;2024-03-08T15:52:36;11.40;;;7.73;;
19946;SDS011;10135;50.702;7.276;2024-03-08T15:54:40;13.97;;;7.43;;
19946;SDS011;10135;50.702;7.276;2024-03-08T15:56:43;11.90;;;7.03;;
19946;SDS011;10135;50.702;7.276;2024-03-08T15:58:44;12.63;;;7.33;;
19946;SDS011;10135;50.702;7.276;2024-03-08T16:00:46;9.03;;;6.80;;
19946;SDS011;10135;50.702;7.276;2024-03-08T16:02:47;11.37;;;7.27;;
19946;SDS011;10135;50.702;7.276;2024-03-08T16:04:50;10.13;;;7.10;;
19946;SDS011;10135;50.702;7.276;2024-03-08T16:06:53;12.07;;;7.63;;
19946;SDS011;10135;50.702;7.276;2024-03-08T16:08:54;13.43;;;7.67;;
19946;SDS011;10135;50.702;7.276;2024-03-08T16:10:55;11.30;;;7.70;;
19946;SDS011;10135;50.702;7.276;2024-03-08T16:12:56;11.53;;;7.93;;
19946;SDS011;10135;50.702;7.276;2024-03-08T16:14:57;12.27;;;8.17;;
19946;SDS011;10135;50.702;7.276;2024-03-08T16:16:57;19.33;;;7.90;;
19946;SDS011;10135;50.702;7.276;2024-03-08T16:18:58;12.27;;;8.07;;
19946;SDS011;10135;50.702;7.276;2024-03-08T16:20:59;11.60;;;7.93;;
19946;SDS011;10135;50.702;7.276;2024-03-08T16:23:00;11.37;;;7.83;;
19946;SDS011;10135;50.702;7.276;2024-03-08T16:25:01;12.33;;;7.57;;
19946;SDS011;10135;50.702;7.276;2024-03-08T16:27:04;11.27;;;7.83;;
19946;SDS011;10135;50.702;7.276;2024-03-08T16:29:05;12.87;;;8.17;;
19946;SDS011;10135;50.702;7.276;2024-03-08T16:31:06;11.60;;;7.73;;
19946;SDS011;10135;50.702;7.276;2024-03-08T16:33:07;11.37;;;7.90;;
19946;SDS011;10135;50.702;7.276;2024-03-08T16:35:08;11.77;;;7.87;;
19946;SDS011;10135;50.702;7.276;2024-03-08T16:37:10;10.87;;;7.60;;
19946;SDS011;10135;50.702;7.276;2024-03-08T16:39:11;12.07;;;7.67;;
19946;SDS011;10135;50.702;7.276;2024-03-08T16:41:12;10.73;;;7.73;;
19946;SDS011;10135;50.702;7.276;2024-03-08T16:43:13;13.73;;;7.63;;
19946;SDS011;10135;50.702;7.276;2024-03-08T16:45:15;10.70;;;7.27;;
19946;SDS011;10135;50.702;7.276;2024-03-08T16:47:15;10.87;;;7.60;;
19946;SDS011;10135;50.702;7.276;2024-03-08T16:49:16;12.37;;;7.93;;
19946;SDS011;10135;50.702;7.276;2024-03-08T16:51:17;13.03;;;7.77;;
19946;SDS011;10135;50.702;7.276;2024-03-08T16:53:18;10.23;;;7.57;;
19946;SDS011;10135;50.702;7.276;2024-03-08T16:55:18;12.70;;;7.97;;
19946;SDS011;10135;50.702;7.276;2024-03-08T16:57:20;13.70;;;7.73;;
19946;SDS011;10135;50.702;7.276;2024-03-08T16:59:20;13.30;;;8.17;;
19946;SDS011;10135;50.702;7.276;2024-03-08T17:01:21;10.90;;;7.50;;
19946;SDS011;10135;50.702;7.276;2024-03-08T17:03:22;13.47;;;8.47;;
19946;SDS011;10135;50.702;7.276;2024-03-08T17:05:23;12.40;;;8.17;;
19946;SDS011;10135;50.702;7.276;2024-03-08T17:07:28;11.13;;;7.60;;
19946;SDS011;10135;50.702;7.276;2024-03-08T17:09:32;11.53;;;7.70;;
19946;SDS011;10135;50.702;7.276;2024-03-08T17:11:33;11.03;;;7.27;;
19946;SDS011;10135;50.702;7.276;2024-03-08T17:13:35;11.93;;;7.97;;
19946;SDS011;10135;50.702;7.276;2024-03-08T17:15:36;13.90;;;8.50;;
19946;SDS011;10135;50.702;7.276;2024-03-08T17:17:38;13.20;;;8.10;;
19946;SDS011;10135;50.702;7.276;2024-03-08T17:19:41;17.43;;;9.10;;
19946;SDS011;10135;50.702;7.276;2024-03-08T17:21:43;12.80;;;8.40;;
19946;SDS011;10135;50.702;7.276;2024-03-08T17:23:43;12.63;;;8.50;;
19946;SDS011;10135;50.702;7.276;2024-03-08T17:25:45;12.50;;;7.73;;
19946;SDS011;10135;50.702;7.276;2024-03-08T17:27:48;12.47;;;8.17;;
19946;SDS011;10135;50.702;7.276;2024-03-08T17:29:52;13.40;;;8.30;;
19946;SDS011;10135;50.702;7.276;2024-03-08T17:31:54;12.30;;;8.40;;
19946;SDS011;10135;50.702;7.276;2024-03-08T17:33:55;11.87;;;8.20;;
19946;SDS011;10135;50.702;7.276;2024-03-08T17:35:56;13.30;;;8.30;;
19946;SDS011;10135;50.702;7.276;2024-03-08T17:37:57;13.93;;;8.67;;
19946;SDS011;10135;50.702;7.276;2024-03-08T17:39:58;14.17;;;8.93;;
19946;SDS011;10135;50.702;7.276;2024-03-08T17:42:00;12.87;;;8.10;;
19946;SDS011;10135;50.702;7.276;2024-03-08T17:44:01;14.30;;;8.40;;
19946;SDS011;10135;50.702;7.276;2024-03-08T17:46:02;13.63;;;8.70;;
19946;SDS011;10135;50.702;7.276;2024-03-08T17:48:04;16.07;;;9.63;;
19946;SDS011;10135;50.702;7.276;2024-03-08T17:50:11;12.37;;;8.07;;
19946;SDS011;10135;50.702;7.276;2024-03-08T17:52:17;12.93;;;8.60;;
19946;SDS011;10135;50.702;7.276;2024-03-08T17:54:20;15.23;;;8.50;;
19946;SDS011;10135;50.702;7.276;2024-03-08T17:56:21;13.93;;;8.90;;
19946;SDS011;10135;50.702;7.276;2024-03-08T17:58:21;11.93;;;8.13;;
19946;SDS011;10135;50.702;7.276;2024-03-08T18:00:22;15.80;;;9.43;;
19946;SDS011;10135;50.702;7.276;2024-03-08T18:02:32;16.63;;;9.40;;
19946;SDS011;10135;50.702;7.276;2024-03-08T18:04:34;13.43;;;8.63;;
19946;SDS011;10135;50.702;7.276;2024-03-08T18:06:38;15.50;;;9.33;;
19946;SDS011;10135;50.702;7.276;2024-03-08T18:08:40;13.70;;;8.60;;
19946;SDS011;10135;50.702;7.276;2024-03-08T18:10:43;15.77;;;9.23;;
19946;SDS011;10135;50.702;7.276;2024-03-08T18:12:48;14.07;;;8.43;;
19946;SDS011;10135;50.702;7.276;2024-03-08T18:14:51;17.17;;;9.07;;